sensor_id;sensor_type;location;lat;lon;timestamp;temperature;humidity
4050;DHT22;2039;50.894;6.888;2024-01-25T00:02:24;9.70;99.90
4050;DHT22;2039;50.894;6.888;2024-01-25T00:04:50;9.60;99.90
4050;DHT22;2039;50.894;6.888;2024-01-25T00:07:16;9.60;99.90
4050;DHT22;2039;50.894;6.888;2024-01-25T00:09:41;9.60;99.90
4050;DHT22;2039;50.894;6.888;2024-01-25T00:12:07;9.60;99.90
4050;DHT22;2039;50.894;6.888;2024-01-25T00:14:32;9.60;99.90
4050;DHT22;2039;50.894;6.888;2024-01-25T00:16:58;9.60;99.90
4050;DHT22;2039;50.894;6.888;2024-01-25T00:19:24;9.60;99.90
4050;DHT22;2039;50.894;6.888;2024-01-25T00:21:49;9.60;99.90
4050;DHT22;2039;50.894;6.888;2024-01-25T00:24:15;9.60;99.90
4050;DHT22;2039;50.894;6.888;2024-01-25T00:26:41;9.60;99.90
4050;DHT22;2039;50.894;6.888;2024-01-25T00:29:06;9.60;99.90
4050;DHT22;2039;50.894;6.888;2024-01-25T00:31:32;9.60;99.90
4050;DHT22;2039;50.894;6.888;2024-01-25T00:34:00;9.60;99.90
4050;DHT22;2039;50.894;6.888;2024-01-25T00:36:25;9.60;99.90
4050;DHT22;2039;50.894;6.888;2024-01-25T00:38:51;9.50;99.90
4050;DHT22;2039;50.894;6.888;2024-01-25T00:41:18;9.60;99.90
4050;DHT22;2039;50.894;6.888;2024-01-25T00:43:46;9.60;99.90
4050;DHT22;2039;50.894;6.888;2024-01-25T00:46:13;9.60;99.90
4050;DHT22;2039;50.894;6.888;2024-01-25T00:48:39;9.60;99.90
4050;DHT22;2039;50.894;6.888;2024-01-25T00:51:07;9.60;99.90
4050;DHT22;2039;50.894;6.888;2024-01-25T00:53:33;9.60;99.90
4050;DHT22;2039;50.894;6.888;2024-01-25T00:56:00;9.50;99.90
4050;DHT22;2039;50.894;6.888;2024-01-25T00:58:26;9.60;99.90
4050;DHT22;2039;50.894;6.888;2024-01-25T01:00:51;9.50;99.90
4050;DHT22;2039;50.894;6.888;2024-01-25T01:03:18;9.50;99.90
4050;DHT22;2039;50.894;6.888;2024-01-25T01:05:45;9.50;99.90
4050;DHT22;2039;50.894;6.888;2024-01-25T01:08:11;9.50;99.90
4050;DHT22;2039;50.894;6.888;2024-01-25T01:10:37;9.50;99.90
4050;DHT22;2039;50.894;6.888;2024-01-25T01:13:03;9.50;99.90
4050;DHT22;2039;50.894;6.888;2024-01-25T01:15:28;9.40;99.90
4050;DHT22;2039;50.894;6.888;2024-01-25T01:17:54;9.40;99.90
4050;DHT22;2039;50.894;6.888;2024-01-25T01:20:20;9.40;99.90
4050;DHT22;2039;50.894;6.888;2024-01-25T01:22:45;9.40;99.90
4050;DHT22;2039;50.894;6.888;2024-01-25T01:25:11;9.30;99.90
4050;DHT22;2039;50.894;6.888;2024-01-25T01:27:37;9.30;99.90
4050;DHT22;2039;50.894;6.888;2024-01-25T01:30:03;9.20;99.90
4050;DHT22;2039;50.894;6.888;2024-01-25T01:32:29;9.20;99.90
4050;DHT22;2039;50.894;6.888;2024-01-25T01:34:55;9.20;99.90
4050;DHT22;2039;50.894;6.888;2024-01-25T01:37:21;9.20;99.90
4050;DHT22;2039;50.894;6.888;2024-01-25T01:39:46;9.20;99.90
4050;DHT22;2039;50.894;6.888;2024-01-25T01:42:12;9.10;99.90
4050;DHT22;2039;50.894;6.888;2024-01-25T01:44:38;9.10;99.90
4050;DHT22;2039;50.894;6.888;2024-01-25T01:47:04;9.00;99.90
4050;DHT22;2039;50.894;6.888;2024-01-25T01:49:30;9.00;99.90
4050;DHT22;2039;50.894;6.888;2024-01-25T01:51:56;9.00;99.90
4050;DHT22;2039;50.894;6.888;2024-01-25T01:54:22;9.00;99.90
4050;DHT22;2039;50.894;6.888;2024-01-25T01:56:48;9.00;99.90
4050;DHT22;2039;50.894;6.888;2024-01-25T01:59:15;9.00;99.90
4050;DHT22;2039;50.894;6.888;2024-01-25T02:01:41;8.90;99.90
4050;DHT22;2039;50.894;6.888;2024-01-25T02:04:07;8.90;99.90
4050;DHT22;2039;50.894;6.888;2024-01-25T02:06:32;8.90;99.90
4050;DHT22;2039;50.894;6.888;2024-01-25T02:08:58;8.90;99.90
4050;DHT22;2039;50.894;6.888;2024-01-25T02:11:25;8.80;99.90
4050;DHT22;2039;50.894;6.888;2024-01-25T02:13:51;8.90;99.90
4050;DHT22;2039;50.894;6.888;2024-01-25T02:16:17;8.90;99.90
4050;DHT22;2039;50.894;6.888;2024-01-25T02:18:46;8.80;99.90
4050;DHT22;2039;50.894;6.888;2024-01-25T02:21:15;8.70;99.90
4050;DHT22;2039;50.894;6.888;2024-01-25T02:23:40;8.80;99.90
4050;DHT22;2039;50.894;6.888;2024-01-25T02:26:06;8.80;99.90
4050;DHT22;2039;50.894;6.888;2024-01-25T02:28:32;8.80;99.90
4050;DHT22;2039;50.894;6.888;2024-01-25T02:30:59;8.80;99.90
4050;DHT22;2039;50.894;6.888;2024-01-25T02:33:25;8.70;99.90
4050;DHT22;2039;50.894;6.888;2024-01-25T02:35:51;8.70;99.90
4050;DHT22;2039;50.894;6.888;2024-01-25T02:38:16;8.60;99.90
4050;DHT22;2039;50.894;6.888;2024-01-25T02:40:42;8.60;99.90
4050;DHT22;2039;50.894;6.888;2024-01-25T02:43:08;8.60;99.90
4050;DHT22;2039;50.894;6.888;2024-01-25T02:45:34;8.60;99.90
4050;DHT22;2039;50.894;6.888;2024-01-25T02:47:59;8.50;99.90
4050;DHT22;2039;50.894;6.888;2024-01-25T02:50:27;8.50;99.90
4050;DHT22;2039;50.894;6.888;2024-01-25T02:52:53;8.50;99.90
4050;DHT22;2039;50.894;6.888;2024-01-25T02:55:19;8.50;99.90
4050;DHT22;2039;50.894;6.888;2024-01-25T02:57:45;8.50;99.90
4050;DHT22;2039;50.894;6.888;2024-01-25T03:00:11;8.50;99.90
4050;DHT22;2039;50.894;6.888;2024-01-25T03:02:36;8.50;99.90
4050;DHT22;2039;50.894;6.888;2024-01-25T03:05:02;8.40;99.90
4050;DHT22;2039;50.894;6.888;2024-01-25T03:07:28;8.40;99.90
4050;DHT22;2039;50.894;6.888;2024-01-25T03:09:53;8.40;99.90
4050;DHT22;2039;50.894;6.888;2024-01-25T03:12:19;8.40;99.90
4050;DHT22;2039;50.894;6.888;2024-01-25T03:14:45;8.40;99.90
4050;DHT22;2039;50.894;6.888;2024-01-25T03:17:11;8.40;99.90
4050;DHT22;2039;50.894;6.888;2024-01-25T03:19:38;8.40;99.90
4050;DHT22;2039;50.894;6.888;2024-01-25T03:22:04;8.30;99.90
4050;DHT22;2039;50.894;6.888;2024-01-25T03:24:29;8.30;99.90
4050;DHT22;2039;50.894;6.888;2024-01-25T03:26:55;8.30;99.90
4050;DHT22;2039;50.894;6.888;2024-01-25T03:29:20;8.30;99.90
4050;DHT22;2039;50.894;6.888;2024-01-25T03:31:46;8.30;99.90
4050;DHT22;2039;50.894;6.888;2024-01-25T03:34:12;8.30;99.90
4050;DHT22;2039;50.894;6.888;2024-01-25T03:36:38;8.20;99.90
4050;DHT22;2039;50.894;6.888;2024-01-25T03:39:05;8.10;99.90
4050;DHT22;2039;50.894;6.888;2024-01-25T03:41:34;8.10;99.90
4050;DHT22;2039;50.894;6.888;2024-01-25T03:43:59;8.20;99.90
4050;DHT22;2039;50.894;6.888;2024-01-25T03:46:25;8.20;99.90
4050;DHT22;2039;50.894;6.888;2024-01-25T03:48:51;8.20;99.90
4050;DHT22;2039;50.894;6.888;2024-01-25T03:51:16;8.20;99.90
4050;DHT22;2039;50.894;6.888;2024-01-25T03:53:42;8.20;99.90
4050;DHT22;2039;50.894;6.888;2024-01-25T03:56:14;8.20;99.90
4050;DHT22;2039;50.894;6.888;2024-01-25T03:58:44;8.20;99.90
4050;DHT22;2039;50.894;6.888;2024-01-25T04:01:09;8.20;99.90
4050;DHT22;2039;50.894;6.888;2024-01-25T04:03:35;8.20;99.90
4050;DHT22;2039;50.894;6.888;2024-01-25T04:06:01;8.20;99.90
4050;DHT22;2039;50.894;6.888;2024-01-25T04:08:27;8.20;99.90
4050;DHT22;2039;50.894;6.888;2024-01-25T04:10:53;8.10;99.90
4050;DHT22;2039;50.894;6.888;2024-01-25T04:13:18;8.10;99.90
4050;DHT22;2039;50.894;6.888;2024-01-25T04:15:44;8.00;99.90
4050;DHT22;2039;50.894;6.888;2024-01-25T04:18:09;8.00;99.90
4050;DHT22;2039;50.894;6.888;2024-01-25T04:20:35;8.00;99.90
4050;DHT22;2039;50.894;6.888;2024-01-25T04:23:01;8.00;99.90
4050;DHT22;2039;50.894;6.888;2024-01-25T04:25:27;7.90;99.90
4050;DHT22;2039;50.894;6.888;2024-01-25T04:27:52;7.90;99.90
4050;DHT22;2039;50.894;6.888;2024-01-25T04:30:18;7.80;99.90
4050;DHT22;2039;50.894;6.888;2024-01-25T04:32:44;7.80;99.90
4050;DHT22;2039;50.894;6.888;2024-01-25T04:35:09;7.80;99.90
4050;DHT22;2039;50.894;6.888;2024-01-25T04:37:35;7.80;99.90
4050;DHT22;2039;50.894;6.888;2024-01-25T04:40:01;7.80;99.90
4050;DHT22;2039;50.894;6.888;2024-01-25T04:42:28;7.70;99.90
4050;DHT22;2039;50.894;6.888;2024-01-25T04:44:53;7.70;99.90
4050;DHT22;2039;50.894;6.888;2024-01-25T04:47:19;7.70;99.90
4050;DHT22;2039;50.894;6.888;2024-01-25T04:49:45;7.60;99.90
4050;DHT22;2039;50.894;6.888;2024-01-25T04:52:10;7.60;99.90
4050;DHT22;2039;50.894;6.888;2024-01-25T04:54:36;7.50;99.90
4050;DHT22;2039;50.894;6.888;2024-01-25T04:57:02;7.40;99.90
4050;DHT22;2039;50.894;6.888;2024-01-25T04:59:34;7.40;99.90
4050;DHT22;2039;50.894;6.888;2024-01-25T05:02:00;7.50;99.90
4050;DHT22;2039;50.894;6.888;2024-01-25T05:04:27;7.60;99.90
4050;DHT22;2039;50.894;6.888;2024-01-25T05:06:56;7.60;99.90
4050;DHT22;2039;50.894;6.888;2024-01-25T05:09:22;7.60;99.90
4050;DHT22;2039;50.894;6.888;2024-01-25T05:11:48;7.60;99.90
4050;DHT22;2039;50.894;6.888;2024-01-25T05:14:13;7.50;99.90
4050;DHT22;2039;50.894;6.888;2024-01-25T05:16:39;7.50;99.90
4050;DHT22;2039;50.894;6.888;2024-01-25T05:19:05;7.50;99.90
4050;DHT22;2039;50.894;6.888;2024-01-25T05:21:31;7.50;99.90
4050;DHT22;2039;50.894;6.888;2024-01-25T05:23:56;7.50;99.90
4050;DHT22;2039;50.894;6.888;2024-01-25T05:26:22;7.40;99.90
4050;DHT22;2039;50.894;6.888;2024-01-25T05:28:48;7.30;99.90
4050;DHT22;2039;50.894;6.888;2024-01-25T05:31:14;7.20;99.90
4050;DHT22;2039;50.894;6.888;2024-01-25T05:33:40;7.10;99.90
4050;DHT22;2039;50.894;6.888;2024-01-25T05:36:06;7.00;99.90
4050;DHT22;2039;50.894;6.888;2024-01-25T05:38:32;7.00;99.90
4050;DHT22;2039;50.894;6.888;2024-01-25T05:40:58;7.00;99.90
4050;DHT22;2039;50.894;6.888;2024-01-25T05:43:24;7.00;99.90
4050;DHT22;2039;50.894;6.888;2024-01-25T05:45:50;7.00;99.90
4050;DHT22;2039;50.894;6.888;2024-01-25T05:48:16;6.90;99.90
4050;DHT22;2039;50.894;6.888;2024-01-25T05:50:41;6.90;99.90
4050;DHT22;2039;50.894;6.888;2024-01-25T05:53:07;6.80;99.90
4050;DHT22;2039;50.894;6.888;2024-01-25T05:55:33;6.80;99.90
4050;DHT22;2039;50.894;6.888;2024-01-25T05:57:58;6.70;99.90
4050;DHT22;2039;50.894;6.888;2024-01-25T06:00:24;6.70;99.90
4050;DHT22;2039;50.894;6.888;2024-01-25T06:02:50;6.60;99.90
4050;DHT22;2039;50.894;6.888;2024-01-25T06:05:15;6.60;99.90
4050;DHT22;2039;50.894;6.888;2024-01-25T06:07:41;6.60;99.90
4050;DHT22;2039;50.894;6.888;2024-01-25T06:10:07;6.50;99.90
4050;DHT22;2039;50.894;6.888;2024-01-25T06:12:33;6.50;99.90
4050;DHT22;2039;50.894;6.888;2024-01-25T06:14:59;6.50;99.90
4050;DHT22;2039;50.894;6.888;2024-01-25T06:17:24;6.50;99.90
4050;DHT22;2039;50.894;6.888;2024-01-25T06:19:50;6.40;99.90
4050;DHT22;2039;50.894;6.888;2024-01-25T06:22:16;6.40;99.90
4050;DHT22;2039;50.894;6.888;2024-01-25T06:24:43;6.50;99.90
4050;DHT22;2039;50.894;6.888;2024-01-25T06:27:09;6.50;99.90
4050;DHT22;2039;50.894;6.888;2024-01-25T06:29:35;6.50;99.90
4050;DHT22;2039;50.894;6.888;2024-01-25T06:32:01;6.40;99.90
4050;DHT22;2039;50.894;6.888;2024-01-25T06:34:27;6.40;99.90
4050;DHT22;2039;50.894;6.888;2024-01-25T06:36:53;6.40;99.90
4050;DHT22;2039;50.894;6.888;2024-01-25T06:39:19;6.30;99.90
4050;DHT22;2039;50.894;6.888;2024-01-25T06:41:44;6.40;99.90
4050;DHT22;2039;50.894;6.888;2024-01-25T06:44:10;6.40;99.90
4050;DHT22;2039;50.894;6.888;2024-01-25T06:46:36;6.40;99.90
4050;DHT22;2039;50.894;6.888;2024-01-25T06:49:01;6.40;99.90
4050;DHT22;2039;50.894;6.888;2024-01-25T06:51:28;6.40;99.90
4050;DHT22;2039;50.894;6.888;2024-01-25T06:53:54;6.30;99.90
4050;DHT22;2039;50.894;6.888;2024-01-25T06:56:19;6.20;99.90
4050;DHT22;2039;50.894;6.888;2024-01-25T06:58:45;6.20;99.90
4050;DHT22;2039;50.894;6.888;2024-01-25T07:01:11;6.20;99.90
4050;DHT22;2039;50.894;6.888;2024-01-25T07:03:36;6.20;99.90
4050;DHT22;2039;50.894;6.888;2024-01-25T07:06:03;6.30;99.90
4050;DHT22;2039;50.894;6.888;2024-01-25T07:08:29;6.40;99.90
4050;DHT22;2039;50.894;6.888;2024-01-25T07:10:55;6.40;99.90
4050;DHT22;2039;50.894;6.888;2024-01-25T07:13:21;6.30;99.90
4050;DHT22;2039;50.894;6.888;2024-01-25T07:15:47;6.30;99.90
4050;DHT22;2039;50.894;6.888;2024-01-25T07:18:13;6.30;99.90
4050;DHT22;2039;50.894;6.888;2024-01-25T07:20:38;6.30;99.90
4050;DHT22;2039;50.894;6.888;2024-01-25T07:23:04;6.20;99.90
4050;DHT22;2039;50.894;6.888;2024-01-25T07:25:30;6.30;99.90
4050;DHT22;2039;50.894;6.888;2024-01-25T07:27:55;6.30;99.90
4050;DHT22;2039;50.894;6.888;2024-01-25T07:30:21;6.30;99.90
4050;DHT22;2039;50.894;6.888;2024-01-25T07:32:47;6.30;99.90
4050;DHT22;2039;50.894;6.888;2024-01-25T07:35:15;6.30;99.90
4050;DHT22;2039;50.894;6.888;2024-01-25T07:37:41;6.30;99.90
4050;DHT22;2039;50.894;6.888;2024-01-25T07:40:08;6.20;99.90
4050;DHT22;2039;50.894;6.888;2024-01-25T07:42:34;6.20;99.90
4050;DHT22;2039;50.894;6.888;2024-01-25T07:44:59;6.20;99.90
4050;DHT22;2039;50.894;6.888;2024-01-25T07:47:25;6.30;99.90
4050;DHT22;2039;50.894;6.888;2024-01-25T07:49:51;6.30;99.90
4050;DHT22;2039;50.894;6.888;2024-01-25T07:52:16;6.30;99.90
4050;DHT22;2039;50.894;6.888;2024-01-25T07:54:42;6.30;99.90
4050;DHT22;2039;50.894;6.888;2024-01-25T07:57:09;6.30;99.90
4050;DHT22;2039;50.894;6.888;2024-01-25T07:59:34;6.40;99.90
4050;DHT22;2039;50.894;6.888;2024-01-25T08:02:00;6.30;99.90
4050;DHT22;2039;50.894;6.888;2024-01-25T08:04:26;6.40;99.90
4050;DHT22;2039;50.894;6.888;2024-01-25T08:06:52;6.40;99.90
4050;DHT22;2039;50.894;6.888;2024-01-25T08:09:17;6.40;99.90
4050;DHT22;2039;50.894;6.888;2024-01-25T08:11:44;6.40;99.90
4050;DHT22;2039;50.894;6.888;2024-01-25T08:14:10;6.40;99.90
4050;DHT22;2039;50.894;6.888;2024-01-25T08:16:36;6.40;99.90
4050;DHT22;2039;50.894;6.888;2024-01-25T08:19:02;6.50;99.90
4050;DHT22;2039;50.894;6.888;2024-01-25T08:21:28;6.50;99.90
4050;DHT22;2039;50.894;6.888;2024-01-25T08:23:54;6.60;99.90
4050;DHT22;2039;50.894;6.888;2024-01-25T08:26:19;6.70;99.90
4050;DHT22;2039;50.894;6.888;2024-01-25T08:28:46;6.70;99.90
4050;DHT22;2039;50.894;6.888;2024-01-25T08:31:12;6.80;99.90
4050;DHT22;2039;50.894;6.888;2024-01-25T08:33:39;6.90;99.90
4050;DHT22;2039;50.894;6.888;2024-01-25T08:36:09;7.00;99.90
4050;DHT22;2039;50.894;6.888;2024-01-25T08:38:35;7.10;99.90
4050;DHT22;2039;50.894;6.888;2024-01-25T08:41:01;7.20;99.90
4050;DHT22;2039;50.894;6.888;2024-01-25T08:43:27;7.30;99.90
4050;DHT22;2039;50.894;6.888;2024-01-25T08:45:52;7.30;99.90
4050;DHT22;2039;50.894;6.888;2024-01-25T08:48:18;7.30;99.90
4050;DHT22;2039;50.894;6.888;2024-01-25T08:50:44;7.30;99.90
4050;DHT22;2039;50.894;6.888;2024-01-25T08:53:09;7.40;99.90
4050;DHT22;2039;50.894;6.888;2024-01-25T08:55:35;7.40;99.90
4050;DHT22;2039;50.894;6.888;2024-01-25T08:58:01;7.40;99.90
4050;DHT22;2039;50.894;6.888;2024-01-25T09:00:26;7.40;99.90
4050;DHT22;2039;50.894;6.888;2024-01-25T09:02:53;7.50;99.90
4050;DHT22;2039;50.894;6.888;2024-01-25T09:05:18;7.60;99.90
4050;DHT22;2039;50.894;6.888;2024-01-25T09:07:44;7.60;99.90
4050;DHT22;2039;50.894;6.888;2024-01-25T09:10:10;7.70;99.90
4050;DHT22;2039;50.894;6.888;2024-01-25T09:12:37;7.70;99.90
4050;DHT22;2039;50.894;6.888;2024-01-25T09:15:03;7.80;99.90
4050;DHT22;2039;50.894;6.888;2024-01-25T09:17:29;7.90;99.90
4050;DHT22;2039;50.894;6.888;2024-01-25T09:19:55;7.80;99.90
4050;DHT22;2039;50.894;6.888;2024-01-25T09:22:24;7.80;99.90
4050;DHT22;2039;50.894;6.888;2024-01-25T09:24:49;7.80;99.90
4050;DHT22;2039;50.894;6.888;2024-01-25T09:27:15;7.90;99.90
4050;DHT22;2039;50.894;6.888;2024-01-25T09:29:42;7.90;75.00
4050;DHT22;2039;50.894;6.888;2024-01-25T09:32:08;7.90;83.80
4050;DHT22;2039;50.894;6.888;2024-01-25T09:34:37;7.90;91.20
4050;DHT22;2039;50.894;6.888;2024-01-25T09:37:07;8.00;1.00
4050;DHT22;2039;50.894;6.888;2024-01-25T09:39:33;8.10;1.00
4050;DHT22;2039;50.894;6.888;2024-01-25T09:41:58;8.10;1.00
4050;DHT22;2039;50.894;6.888;2024-01-25T09:44:24;8.20;1.00
4050;DHT22;2039;50.894;6.888;2024-01-25T09:46:51;8.30;1.00
4050;DHT22;2039;50.894;6.888;2024-01-25T09:49:17;8.30;99.90
4050;DHT22;2039;50.894;6.888;2024-01-25T09:51:43;8.40;99.90
4050;DHT22;2039;50.894;6.888;2024-01-25T09:54:09;8.40;36.30
4050;DHT22;2039;50.894;6.888;2024-01-25T09:56:41;8.40;1.00
4050;DHT22;2039;50.894;6.888;2024-01-25T09:59:08;8.50;1.00
4050;DHT22;2039;50.894;6.888;2024-01-25T10:01:34;8.50;1.00
4050;DHT22;2039;50.894;6.888;2024-01-25T10:04:00;8.50;1.00
4050;DHT22;2039;50.894;6.888;2024-01-25T10:06:26;8.50;1.00
4050;DHT22;2039;50.894;6.888;2024-01-25T10:08:52;8.60;1.00
4050;DHT22;2039;50.894;6.888;2024-01-25T10:11:18;8.60;1.00
4050;DHT22;2039;50.894;6.888;2024-01-25T10:13:49;8.60;1.00
4050;DHT22;2039;50.894;6.888;2024-01-25T10:16:19;8.70;99.90
4050;DHT22;2039;50.894;6.888;2024-01-25T10:18:48;8.70;99.90
4050;DHT22;2039;50.894;6.888;2024-01-25T10:21:15;8.80;99.90
4050;DHT22;2039;50.894;6.888;2024-01-25T10:23:43;8.80;99.90
4050;DHT22;2039;50.894;6.888;2024-01-25T10:26:09;8.90;99.90
4050;DHT22;2039;50.894;6.888;2024-01-25T10:28:35;9.00;99.90
4050;DHT22;2039;50.894;6.888;2024-01-25T10:31:02;9.10;99.90
4050;DHT22;2039;50.894;6.888;2024-01-25T10:33:30;9.10;90.50
4050;DHT22;2039;50.894;6.888;2024-01-25T10:35:56;9.10;34.10
4050;DHT22;2039;50.894;6.888;2024-01-25T10:40:55;9.30;42.70
4050;DHT22;2039;50.894;6.888;2024-01-25T10:43:22;9.40;41.80
4050;DHT22;2039;50.894;6.888;2024-01-25T10:45:48;9.50;25.80
4050;DHT22;2039;50.894;6.888;2024-01-25T10:48:14;9.50;99.90
4050;DHT22;2039;50.894;6.888;2024-01-25T10:50:39;9.60;54.20
4050;DHT22;2039;50.894;6.888;2024-01-25T10:53:07;9.60;20.10
4050;DHT22;2039;50.894;6.888;2024-01-25T10:55:33;9.60;99.90
4050;DHT22;2039;50.894;6.888;2024-01-25T10:57:59;9.70;1.00
4050;DHT22;2039;50.894;6.888;2024-01-25T11:00:25;9.70;99.90
4050;DHT22;2039;50.894;6.888;2024-01-25T11:02:51;9.70;99.90
4050;DHT22;2039;50.894;6.888;2024-01-25T11:05:17;9.70;99.90
4050;DHT22;2039;50.894;6.888;2024-01-25T11:07:46;9.70;99.90
4050;DHT22;2039;50.894;6.888;2024-01-25T11:10:16;9.80;99.90
4050;DHT22;2039;50.894;6.888;2024-01-25T11:15:29;9.90;99.90
4050;DHT22;2039;50.894;6.888;2024-01-25T11:17:55;9.90;99.90
4050;DHT22;2039;50.894;6.888;2024-01-25T11:20:26;9.90;99.90
4050;DHT22;2039;50.894;6.888;2024-01-25T11:23:05;10.00;99.90
4050;DHT22;2039;50.894;6.888;2024-01-25T11:25:35;10.10;99.90
4050;DHT22;2039;50.894;6.888;2024-01-25T11:28:01;10.20;99.90
4050;DHT22;2039;50.894;6.888;2024-01-25T11:30:29;10.20;99.90
4050;DHT22;2039;50.894;6.888;2024-01-25T11:32:55;10.30;99.90
4050;DHT22;2039;50.894;6.888;2024-01-25T11:35:21;10.40;99.90
4050;DHT22;2039;50.894;6.888;2024-01-25T11:37:51;10.40;99.90
4050;DHT22;2039;50.894;6.888;2024-01-25T11:40:17;10.50;98.50
4050;DHT22;2039;50.894;6.888;2024-01-25T11:42:44;10.60;98.40
4050;DHT22;2039;50.894;6.888;2024-01-25T11:45:11;10.60;95.70
4050;DHT22;2039;50.894;6.888;2024-01-25T11:47:41;10.60;93.80
4050;DHT22;2039;50.894;6.888;2024-01-25T11:50:08;10.60;93.10
4050;DHT22;2039;50.894;6.888;2024-01-25T11:52:35;10.70;94.30
4050;DHT22;2039;50.894;6.888;2024-01-25T11:55:10;10.80;81.80
4050;DHT22;2039;50.894;6.888;2024-01-25T11:57:40;10.90;91.30
4050;DHT22;2039;50.894;6.888;2024-01-25T12:00:08;11.00;71.40
4050;DHT22;2039;50.894;6.888;2024-01-25T12:02:36;11.00;69.50
4050;DHT22;2039;50.894;6.888;2024-01-25T12:05:03;11.10;74.60
4050;DHT22;2039;50.894;6.888;2024-01-25T12:07:32;11.10;53.90
4050;DHT22;2039;50.894;6.888;2024-01-25T12:10:08;11.00;41.90
4050;DHT22;2039;50.894;6.888;2024-01-25T12:12:39;11.10;53.10
4050;DHT22;2039;50.894;6.888;2024-01-25T12:15:05;11.10;44.30
4050;DHT22;2039;50.894;6.888;2024-01-25T12:17:33;11.00;29.80
4050;DHT22;2039;50.894;6.888;2024-01-25T12:20:01;11.20;37.80
4050;DHT22;2039;50.894;6.888;2024-01-25T12:22:28;11.30;32.20
4050;DHT22;2039;50.894;6.888;2024-01-25T12:24:57;11.30;29.00
4050;DHT22;2039;50.894;6.888;2024-01-25T12:27:25;11.40;26.10
4050;DHT22;2039;50.894;6.888;2024-01-25T12:29:51;11.40;23.30
4050;DHT22;2039;50.894;6.888;2024-01-25T12:32:20;11.50;27.00
4050;DHT22;2039;50.894;6.888;2024-01-25T12:34:59;11.50;20.10
4050;DHT22;2039;50.894;6.888;2024-01-25T12:37:27;11.60;19.50
4050;DHT22;2039;50.894;6.888;2024-01-25T12:39:54;11.50;12.50
4050;DHT22;2039;50.894;6.888;2024-01-25T12:42:20;11.50;18.50
4050;DHT22;2039;50.894;6.888;2024-01-25T12:44:47;11.60;18.90
4050;DHT22;2039;50.894;6.888;2024-01-25T12:47:13;11.70;15.30
4050;DHT22;2039;50.894;6.888;2024-01-25T12:49:42;11.70;9.90
4050;DHT22;2039;50.894;6.888;2024-01-25T12:52:09;11.70;15.00
4050;DHT22;2039;50.894;6.888;2024-01-25T12:54:36;11.70;5.40
4050;DHT22;2039;50.894;6.888;2024-01-25T12:57:03;11.70;1.00
4050;DHT22;2039;50.894;6.888;2024-01-25T12:59:28;11.80;1.90
4050;DHT22;2039;50.894;6.888;2024-01-25T13:01:54;11.80;1.00
4050;DHT22;2039;50.894;6.888;2024-01-25T13:04:20;11.80;1.00
4050;DHT22;2039;50.894;6.888;2024-01-25T13:06:46;11.90;8.00
4050;DHT22;2039;50.894;6.888;2024-01-25T13:09:12;12.00;1.00
4050;DHT22;2039;50.894;6.888;2024-01-25T13:11:38;11.80;1.00
4050;DHT22;2039;50.894;6.888;2024-01-25T13:14:04;11.80;1.10
4050;DHT22;2039;50.894;6.888;2024-01-25T13:16:29;11.80;1.00
4050;DHT22;2039;50.894;6.888;2024-01-25T13:18:55;11.70;1.00
4050;DHT22;2039;50.894;6.888;2024-01-25T13:21:21;11.80;1.00
4050;DHT22;2039;50.894;6.888;2024-01-25T13:23:49;11.80;1.00
4050;DHT22;2039;50.894;6.888;2024-01-25T13:26:15;11.80;1.00
4050;DHT22;2039;50.894;6.888;2024-01-25T13:28:40;11.80;1.00
4050;DHT22;2039;50.894;6.888;2024-01-25T13:31:06;11.80;1.00
4050;DHT22;2039;50.894;6.888;2024-01-25T13:33:32;11.70;1.00
4050;DHT22;2039;50.894;6.888;2024-01-25T13:35:57;11.60;1.00
4050;DHT22;2039;50.894;6.888;2024-01-25T13:38:23;11.60;1.00
4050;DHT22;2039;50.894;6.888;2024-01-25T13:40:50;11.60;1.00
4050;DHT22;2039;50.894;6.888;2024-01-25T13:43:16;11.60;1.00
4050;DHT22;2039;50.894;6.888;2024-01-25T13:45:41;11.60;1.00
4050;DHT22;2039;50.894;6.888;2024-01-25T13:48:07;11.60;1.00
4050;DHT22;2039;50.894;6.888;2024-01-25T13:50:33;11.50;1.00
4050;DHT22;2039;50.894;6.888;2024-01-25T13:52:59;11.50;1.00
4050;DHT22;2039;50.894;6.888;2024-01-25T13:55:24;11.50;1.00
4050;DHT22;2039;50.894;6.888;2024-01-25T13:57:50;11.50;1.00
4050;DHT22;2039;50.894;6.888;2024-01-25T14:00:16;11.50;1.00
4050;DHT22;2039;50.894;6.888;2024-01-25T14:02:41;11.50;1.00
4050;DHT22;2039;50.894;6.888;2024-01-25T14:05:11;11.40;1.00
4050;DHT22;2039;50.894;6.888;2024-01-25T14:07:37;11.40;1.00
4050;DHT22;2039;50.894;6.888;2024-01-25T14:10:03;11.40;1.00
4050;DHT22;2039;50.894;6.888;2024-01-25T14:12:29;11.40;1.00
4050;DHT22;2039;50.894;6.888;2024-01-25T14:14:54;11.50;1.00
4050;DHT22;2039;50.894;6.888;2024-01-25T14:17:20;11.40;1.00
4050;DHT22;2039;50.894;6.888;2024-01-25T14:19:47;11.50;1.00
4050;DHT22;2039;50.894;6.888;2024-01-25T14:22:13;11.40;1.00
4050;DHT22;2039;50.894;6.888;2024-01-25T14:24:38;11.40;1.00
4050;DHT22;2039;50.894;6.888;2024-01-25T14:27:04;11.30;1.00
4050;DHT22;2039;50.894;6.888;2024-01-25T14:29:30;11.30;1.00
4050;DHT22;2039;50.894;6.888;2024-01-25T14:31:58;11.30;1.00
4050;DHT22;2039;50.894;6.888;2024-01-25T14:34:23;11.30;1.00
4050;DHT22;2039;50.894;6.888;2024-01-25T14:36:49;11.30;1.00
4050;DHT22;2039;50.894;6.888;2024-01-25T14:39:17;11.20;1.00
4050;DHT22;2039;50.894;6.888;2024-01-25T14:41:44;11.10;1.00
4050;DHT22;2039;50.894;6.888;2024-01-25T14:44:10;11.10;1.00
4050;DHT22;2039;50.894;6.888;2024-01-25T14:46:35;11.00;1.00
4050;DHT22;2039;50.894;6.888;2024-01-25T14:49:02;11.00;1.00
4050;DHT22;2039;50.894;6.888;2024-01-25T14:51:27;11.00;1.00
4050;DHT22;2039;50.894;6.888;2024-01-25T14:53:53;11.00;1.00
4050;DHT22;2039;50.894;6.888;2024-01-25T14:56:19;11.00;1.00
4050;DHT22;2039;50.894;6.888;2024-01-25T14:58:44;10.90;1.00
4050;DHT22;2039;50.894;6.888;2024-01-25T15:01:16;10.90;1.00
4050;DHT22;2039;50.894;6.888;2024-01-25T15:03:47;10.80;1.00
4050;DHT22;2039;50.894;6.888;2024-01-25T15:06:13;10.80;1.00
4050;DHT22;2039;50.894;6.888;2024-01-25T15:08:39;10.80;1.40
4050;DHT22;2039;50.894;6.888;2024-01-25T15:11:06;10.80;8.80
4050;DHT22;2039;50.894;6.888;2024-01-25T15:13:32;10.80;13.20
4050;DHT22;2039;50.894;6.888;2024-01-25T15:15:58;10.70;17.00
4050;DHT22;2039;50.894;6.888;2024-01-25T15:18:23;10.70;25.30
4050;DHT22;2039;50.894;6.888;2024-01-25T15:20:49;10.70;31.20
4050;DHT22;2039;50.894;6.888;2024-01-25T15:23:16;10.70;32.20
4050;DHT22;2039;50.894;6.888;2024-01-25T15:25:42;10.60;34.10
4050;DHT22;2039;50.894;6.888;2024-01-25T15:28:08;10.60;36.50
4050;DHT22;2039;50.894;6.888;2024-01-25T15:30:33;10.60;33.90
4050;DHT22;2039;50.894;6.888;2024-01-25T15:32:59;10.60;38.00
4050;DHT22;2039;50.894;6.888;2024-01-25T15:35:27;10.60;43.90
4050;DHT22;2039;50.894;6.888;2024-01-25T15:37:53;10.60;40.90
4050;DHT22;2039;50.894;6.888;2024-01-25T15:40:21;10.50;39.30
4050;DHT22;2039;50.894;6.888;2024-01-25T15:42:48;10.40;41.40
4050;DHT22;2039;50.894;6.888;2024-01-25T15:45:19;10.40;40.80
4050;DHT22;2039;50.894;6.888;2024-01-25T15:47:45;10.40;40.30
4050;DHT22;2039;50.894;6.888;2024-01-25T15:50:11;10.40;41.20
4050;DHT22;2039;50.894;6.888;2024-01-25T15:52:37;10.30;41.80
4050;DHT22;2039;50.894;6.888;2024-01-25T15:55:03;10.30;52.20
4050;DHT22;2039;50.894;6.888;2024-01-25T15:57:29;10.20;54.70
4050;DHT22;2039;50.894;6.888;2024-01-25T15:59:55;10.20;55.70
4050;DHT22;2039;50.894;6.888;2024-01-25T16:02:21;10.20;54.70
4050;DHT22;2039;50.894;6.888;2024-01-25T16:04:46;10.20;54.30
4050;DHT22;2039;50.894;6.888;2024-01-25T16:07:12;10.10;44.90
4050;DHT22;2039;50.894;6.888;2024-01-25T16:09:38;10.10;48.50
4050;DHT22;2039;50.894;6.888;2024-01-25T16:12:06;10.10;50.80
4050;DHT22;2039;50.894;6.888;2024-01-25T16:14:31;10.10;53.00
4050;DHT22;2039;50.894;6.888;2024-01-25T16:16:57;10.10;52.60